createdAt,value
2019-03-30T12:31:04.755Z,32.17
2019-03-30T12:33:33.277Z,33.55
2019-03-30T12:36:02.000Z,28.70
2019-03-30T12:38:30.773Z,29.80
2019-03-30T12:40:59.264Z,33.08
2019-03-30T12:43:27.890Z,28.92
2019-03-30T12:45:56.732Z,28.38
2019-03-30T12:48:25.614Z,29.20
2019-03-30T12:50:54.192Z,29.52
2019-03-30T12:54:02.156Z,28.40
2019-03-30T12:56:31.779Z,28.52
2019-03-30T12:59:04.151Z,29.63
2019-03-30T13:01:33.633Z,29.60
2019-03-30T13:04:03.298Z,31.60
2019-03-30T13:06:32.813Z,36.95
2019-03-30T13:09:02.255Z,31.00
2019-03-30T13:11:31.774Z,34.80
2019-03-30T13:14:01.176Z,30.05
2019-03-30T13:16:30.788Z,30.57
2019-03-30T13:19:00.340Z,37.10
2019-03-30T13:21:32.361Z,27.43
2019-03-30T13:24:01.123Z,37.45
2019-03-30T13:26:30.615Z,34.18
2019-03-30T13:29:00.120Z,36.27
2019-03-30T13:31:29.526Z,33.42
2019-03-30T13:33:59.018Z,34.80
2019-03-30T13:36:40.235Z,34.00
2019-03-30T13:39:10.006Z,34.10
2019-03-30T13:41:39.472Z,37.23
2019-03-30T13:44:08.879Z,38.77
2019-03-30T13:46:38.407Z,36.13
2019-03-30T13:49:08.219Z,36.93
2019-03-30T13:51:37.833Z,37.55
2019-03-30T13:54:07.523Z,38.65
2019-03-30T13:56:37.214Z,36.00
2019-03-30T13:59:06.631Z,31.50
2019-03-30T14:01:36.036Z,32.30
2019-03-30T14:04:05.421Z,35.58
2019-03-30T14:06:34.891Z,35.73
2019-03-30T14:09:06.414Z,34.93
2019-03-30T14:11:35.999Z,31.05
2019-03-30T14:14:05.396Z,32.47
2019-03-30T14:16:34.786Z,35.23
2019-03-30T14:19:04.186Z,32.47
2019-03-30T14:21:33.663Z,29.83
2019-03-30T14:24:03.070Z,34.67
2019-03-30T14:26:32.558Z,31.13
2019-03-30T14:29:01.933Z,37.53
2019-03-30T14:31:31.330Z,36.20
2019-03-30T14:34:00.718Z,28.57
2019-03-30T14:36:30.175Z,33.13
2019-03-30T14:38:59.579Z,34.27
2019-03-30T14:41:28.981Z,33.53
2019-03-30T14:43:59.149Z,37.77
2019-03-30T14:46:28.585Z,36.60
2019-03-30T14:48:57.981Z,32.47
2019-03-30T14:51:27.428Z,34.13
2019-03-30T14:53:56.830Z,33.27
2019-03-30T14:56:26.249Z,31.65
2019-03-30T14:59:09.145Z,30.70
2019-03-30T15:01:26.658Z,33.40
2019-03-30T15:03:56.038Z,32.60
2019-03-30T15:06:25.433Z,29.63
2019-03-30T15:08:54.839Z,35.03
2019-03-30T15:11:24.249Z,31.00
2019-03-30T15:13:53.719Z,31.33
2019-03-30T15:16:23.100Z,29.77
2019-03-30T15:18:52.505Z,30.50
2019-03-30T15:21:21.882Z,29.10
2019-03-30T15:23:52.279Z,32.55
2019-03-30T15:28:52.863Z,31.80
2019-03-30T15:31:22.307Z,34.00
2019-03-30T15:33:53.339Z,35.38
2019-03-30T15:36:22.855Z,32.13
2019-03-30T15:38:52.262Z,32.63
2019-03-30T15:43:52.143Z,43.80
2019-03-30T15:46:21.681Z,33.58
2019-03-30T15:48:51.080Z,30.72
2019-03-30T15:51:20.480Z,31.82
2019-03-30T15:56:19.571Z,28.65
2019-03-30T15:58:48.945Z,37.08
2019-03-30T16:01:18.349Z,33.38
2019-03-30T16:03:47.828Z,26.45
2019-03-30T16:06:17.273Z,38.17
2019-03-30T16:08:46.673Z,47.83
2019-03-30T16:11:16.159Z,192.20
2019-03-30T16:13:45.547Z,196.65
2019-03-30T16:16:14.955Z,77.58
2019-03-30T16:18:44.333Z,44.18
2019-03-30T16:21:13.728Z,62.85
2019-03-30T16:23:43.181Z,54.98
2019-03-30T16:28:42.228Z,31.05
2019-03-30T16:31:11.607Z,32.35
2019-03-30T16:33:41.080Z,27.32
2019-03-30T16:36:10.500Z,25.27
2019-03-30T16:38:39.873Z,28.12
2019-03-30T16:41:09.287Z,24.67
2019-03-30T16:43:38.744Z,30.02
2019-03-30T16:46:08.248Z,34.23
2019-03-30T16:48:37.677Z,25.30
2019-03-30T16:51:07.146Z,30.43
2019-03-30T16:53:36.544Z,29.15
2019-03-30T16:56:06.009Z,32.67
2019-03-30T16:58:35.751Z,34.23
2019-03-30T17:01:05.253Z,32.95
2019-03-30T17:03:34.648Z,34.90
2019-03-30T17:06:04.080Z,28.75
2019-03-30T17:08:33.510Z,25.48
2019-03-30T17:11:02.927Z,34.27
2019-03-30T17:13:32.382Z,35.83
2019-03-30T17:16:01.782Z,30.40
2019-03-30T17:18:33.334Z,33.42
2019-03-30T17:21:02.891Z,29.05
2019-03-30T17:23:32.435Z,33.02
2019-03-30T17:26:01.872Z,34.57
2019-03-30T17:28:31.441Z,35.70
2019-03-30T17:31:00.892Z,30.05
2019-03-30T17:33:30.360Z,36.75
2019-03-30T17:35:59.825Z,31.77
2019-03-30T17:38:29.355Z,30.37
2019-03-30T17:40:58.964Z,40.73
2019-03-30T17:43:28.462Z,34.50
2019-03-30T17:45:57.951Z,35.30
2019-03-30T17:48:27.556Z,49.20
2019-03-30T17:50:58.663Z,48.60
2019-03-30T17:53:28.386Z,42.00
2019-03-30T17:55:57.923Z,41.43
2019-03-30T18:00:58.291Z,66.37
2019-03-30T18:03:28.385Z,83.50
2019-03-30T18:05:57.811Z,83.67
2019-03-30T18:08:27.266Z,83.85
2019-03-30T18:10:56.796Z,71.40
2019-03-30T18:13:26.635Z,75.17
2019-03-30T18:15:57.778Z,70.50
2019-03-30T18:18:27.337Z,85.77
2019-03-30T18:20:56.845Z,69.82
2019-03-30T18:23:26.581Z,79.67
2019-03-30T18:25:56.215Z,73.60
2019-03-30T18:28:28.895Z,65.30
2019-03-30T18:30:59.651Z,72.10
2019-03-30T18:33:29.263Z,155.03
2019-03-30T18:35:58.717Z,589.52
2019-03-30T18:38:28.325Z,323.90
2019-03-30T18:40:57.855Z,413.30
2019-03-30T18:43:27.394Z,528.83
2019-03-30T18:45:56.919Z,516.35
2019-03-30T18:48:26.429Z,491.20
2019-03-30T18:50:55.981Z,350.73
2019-03-30T18:53:25.459Z,289.17
2019-03-30T18:55:54.878Z,223.53
2019-03-30T18:58:24.283Z,194.75
2019-03-30T19:00:53.754Z,202.82
2019-03-30T19:03:23.162Z,240.80
2019-03-30T19:05:52.556Z,201.50
2019-03-30T19:08:22.039Z,224.35
2019-03-30T19:10:51.466Z,308.00
2019-03-30T19:13:20.947Z,252.70
2019-03-30T19:15:50.423Z,193.22
2019-03-30T19:18:19.880Z,251.58
2019-03-30T19:20:49.361Z,188.42
2019-03-30T19:23:18.768Z,247.15
2019-03-30T19:25:48.221Z,210.32
2019-03-30T19:28:18.701Z,196.72
2019-03-30T19:30:48.090Z,169.75
2019-03-30T19:33:17.505Z,142.53
2019-03-30T19:35:46.981Z,134.07
2019-03-30T19:38:16.369Z,134.93
2019-03-30T19:40:45.786Z,124.42
2019-03-30T19:43:15.173Z,141.28
2019-03-30T19:45:44.572Z,128.97
2019-03-30T19:48:13.978Z,103.85
2019-03-30T19:50:43.363Z,109.05
2019-03-30T19:53:12.762Z,98.58
2019-03-30T19:55:42.136Z,95.03
2019-03-30T19:58:11.767Z,87.67
2019-03-30T20:00:41.179Z,88.70
2019-03-30T20:03:12.009Z,89.00
2019-03-30T20:05:44.510Z,88.52
2019-03-30T20:08:12.889Z,112.17
2019-03-30T20:10:42.520Z,162.75
2019-03-30T20:13:11.921Z,177.87
2019-03-30T20:15:41.334Z,119.42
2019-03-30T20:18:25.546Z,105.40
2019-03-30T20:20:59.860Z,113.83
2019-03-30T20:23:42.078Z,113.42
2019-03-30T20:26:19.091Z,94.62
2019-03-30T20:28:48.477Z,93.85
2019-03-30T20:31:17.990Z,99.00
2019-03-30T20:33:47.552Z,95.27
2019-03-30T20:36:16.926Z,97.57
2019-03-30T20:38:46.328Z,94.62
2019-03-30T20:41:15.833Z,98.07
2019-03-30T20:43:45.299Z,122.33
2019-03-30T20:46:15.869Z,172.80
2019-03-30T20:48:45.251Z,151.57
2019-03-30T20:51:14.645Z,153.10
2019-03-30T20:53:44.014Z,152.50
2019-03-30T20:56:13.481Z,131.25
2019-03-30T20:58:42.884Z,134.60
2019-03-30T21:01:12.320Z,122.75
2019-03-30T21:03:41.773Z,129.82
2019-03-30T21:06:11.176Z,112.77
2019-03-30T21:08:40.641Z,127.30
2019-03-30T21:11:10.396Z,118.53
2019-03-30T21:13:39.897Z,139.55
2019-03-30T21:16:09.294Z,114.67
2019-03-30T21:18:38.702Z,124.07
2019-03-30T21:21:09.293Z,118.77
2019-03-30T21:23:38.808Z,95.42
2019-03-30T21:26:08.196Z,98.45
2019-03-30T21:28:37.632Z,84.40
2019-03-30T21:31:07.030Z,79.12
2019-03-30T21:33:36.908Z,71.30
2019-03-30T21:36:06.438Z,72.60
2019-03-30T21:38:35.851Z,73.92
2019-03-30T21:41:05.226Z,79.82
2019-03-30T21:43:34.735Z,78.97
2019-03-30T21:46:04.130Z,80.83
2019-03-30T21:48:33.592Z,75.03
2019-03-30T21:51:03.100Z,87.27
2019-03-30T21:53:32.632Z,88.33
2019-03-30T21:56:02.227Z,84.95
2019-03-30T21:58:31.757Z,83.23
2019-03-30T22:01:01.222Z,94.83
2019-03-30T22:03:30.988Z,94.52
2019-03-30T22:06:00.328Z,90.57
2019-03-30T22:08:29.814Z,90.00
2019-03-30T22:11:00.893Z,95.17
2019-03-30T22:13:30.644Z,88.90
2019-03-30T22:16:00.184Z,122.92
2019-03-30T22:18:29.552Z,108.20
2019-03-30T22:20:58.958Z,101.95
2019-03-30T22:23:28.336Z,108.10
2019-03-30T22:25:57.742Z,106.43
2019-03-30T22:28:27.295Z,93.72
2019-03-30T22:30:56.830Z,108.25
2019-03-30T22:33:26.243Z,111.90
2019-03-30T22:35:56.701Z,115.57
2019-03-30T22:38:26.122Z,115.88
2019-03-30T22:40:55.514Z,117.87
2019-03-30T22:43:25.030Z,100.80
2019-03-30T22:45:54.435Z,115.00
2019-03-30T22:48:23.834Z,115.15
2019-03-30T22:50:53.268Z,104.20
2019-03-30T22:53:22.687Z,110.83
2019-03-30T22:55:52.142Z,110.60
2019-03-30T22:58:41.028Z,123.50
2019-03-30T23:01:14.937Z,128.47
2019-03-30T23:03:45.950Z,118.80
2019-03-30T23:06:15.332Z,113.92
2019-03-30T23:08:44.834Z,108.15
2019-03-30T23:11:14.290Z,114.40
2019-03-30T23:13:43.743Z,108.50
2019-03-30T23:16:13.197Z,130.75
2019-03-30T23:18:45.270Z,126.67
2019-03-30T23:21:13.618Z,110.25
2019-03-30T23:23:43.026Z,132.05
2019-03-30T23:26:12.473Z,126.25
2019-03-30T23:28:41.947Z,120.67
2019-03-30T23:31:11.412Z,131.63
2019-03-30T23:33:40.864Z,128.05
2019-03-30T23:36:10.437Z,115.35
2019-03-30T23:38:39.876Z,117.37
2019-03-30T23:41:09.343Z,118.93
2019-03-30T23:43:38.808Z,120.85
2019-03-30T23:46:08.254Z,119.42
2019-03-30T23:48:37.649Z,110.48
2019-03-30T23:51:07.028Z,113.83
2019-03-30T23:53:36.499Z,114.25
2019-03-30T23:56:12.014Z,119.87
2019-03-30T23:58:41.409Z,119.47
